Time;durP1;ratioP1;P1;durP2;ratioP2;P2;SDS_P1;SDS_P2;PMS_P1;PMS_P2;Temp;Humidity;BMP_temperature;BMP_pressure;BME280_temperature;BME280_humidity;BME280_pressure;Samples;Min_cycle;Max_cycle;Signal;HPM_P1;HPM_P2
2022/09/08 00:01:34;;;;;;;;;60.67;49.00;;;;;17.94;100.00;99460.16;6285414;20;3615865;-49
2022/09/08 00:04:05;;;;;;;;;62.75;50.25;;;;;17.71;100.00;99457.75;6283706;20;3613879;-50
2022/09/08 00:06:34;;;;;;;;;59.33;48.33;;;;;17.83;100.00;99452.19;6315176;20;3606476;-50
2022/09/08 00:09:05;;;;;;;;;65.00;50.50;;;;;17.58;100.00;99446.31;6281930;20;3636693;-48
2022/09/08 00:11:36;;;;;;;;;57.00;47.00;;;;;17.74;100.00;99462.03;6318439;20;3610789;-50
2022/09/08 00:14:07;;;;;;;;;66.00;51.67;;;;;17.68;100.00;99455.31;6281718;20;3617050;-52
2022/09/08 00:16:40;;;;;;;;;62.33;51.00;;;;;17.63;100.00;99457.63;6283156;20;3620036;-50
2022/09/08 00:19:09;;;;;;;;;62.00;50.67;;;;;17.69;100.00;99453.47;6280230;20;3616000;-48
2022/09/08 00:21:39;;;;;;;;;60.50;48.50;;;;;17.23;100.00;99458.66;6286935;20;3617090;-51
2022/09/08 00:24:07;;;;;;;;;59.67;49.67;;;;;17.53;100.00;99451.34;6313836;20;3606704;-48
2022/09/08 00:26:36;;;;;;;;;58.00;46.67;;;;;17.42;100.00;99448.78;6282973;20;3614849;-49
2022/09/08 00:29:05;;;;;;;;;62.00;51.00;;;;;17.41;100.00;99452.50;6283264;20;3607598;-49
2022/09/08 00:31:39;;;;;;;;;60.33;48.00;;;;;16.86;100.00;99447.63;6281814;20;3617147;-48
2022/09/08 00:34:08;;;;;;;;;62.67;49.33;;;;;16.86;100.00;99443.06;6284714;20;3603405;-50
2022/09/08 00:36:38;;;;;;;;;63.33;52.33;;;;;16.77;100.00;99437.56;6283432;20;3622175;-51
2022/09/08 00:39:07;;;;;;;;;62.33;50.33;;;;;16.81;100.00;99439.91;6284409;20;3605501;-51
2022/09/08 00:41:35;;;;;;;;;66.33;53.00;;;;;16.77;100.00;99433.06;6286654;20;3624238;-47
2022/09/08 00:44:49;;;;;;;;;64.00;50.33;;;;;16.83;100.00;99434.34;6282345;20;3622253;-49
2022/09/08 00:47:49;;;;;;;;;64.33;53.67;;;;;16.88;100.00;99430.22;6287371;20;3602369;-53
2022/09/08 00:50:27;;;;;;;;;67.33;54.00;;;;;17.00;100.00;99421.94;6283315;20;3585806;-49
2022/09/08 00:53:04;;;;;;;;;65.00;52.33;;;;;16.99;100.00;99422.94;6277622;20;3595294;-51
2022/09/08 00:55:38;;;;;;;;;67.67;52.67;;;;;16.84;100.00;99427.94;6313289;20;3611748;-50
2022/09/08 00:58:07;;;;;;;;;64.33;52.00;;;;;16.75;100.00;99426.03;6282550;20;3603497;-50
2022/09/08 01:00:40;;;;;;;;;66.00;53.50;;;;;16.76;100.00;99420.47;6282513;20;3496831;-49
2022/09/08 01:03:15;;;;;;;;;65.00;53.00;;;;;16.99;100.00;99418.38;6308160;20;3624273;-51
2022/09/08 01:12:56;;;;;;;;;66.67;53.33;;;;;16.64;100.00;99429.69;6283267;20;3600376;-54
2022/09/08 01:15:28;;;;;;;;;69.33;54.67;;;;;16.49;100.00;99420.28;6279381;20;3615931;-52
2022/09/08 01:17:57;;;;;;;;;66.00;53.33;;;;;16.41;100.00;99420.97;6286081;20;3620189;-51
2022/09/08 01:21:13;;;;;;;;;63.67;51.33;;;;;16.48;100.00;99422.09;6279326;20;3627436;-49
2022/09/08 01:24:26;;;;;;;;;64.33;51.67;;;;;16.56;100.00;99418.69;6277814;20;3617940;-51
2022/09/08 01:27:26;;;;;;;;;62.67;50.67;;;;;16.43;100.00;99419.84;6282532;20;3623291;-50
2022/09/08 01:30:04;;;;;;;;;64.00;52.33;;;;;16.29;100.00;99412.06;6278174;20;3617082;-52
2022/09/08 01:32:41;;;;;;;;;64.63;52.63;;;;;16.26;100.00;99401.50;6333168;20;3614952;-53
2022/09/08 01:35:12;;;;;;;;;66.67;53.67;;;;;16.44;100.00;99401.72;6308946;20;3587721;-54
2022/09/08 01:37:41;;;;;;;;;65.67;53.00;;;;;16.39;100.00;99395.84;6275414;20;3616900;-51
2022/09/08 01:40:10;;;;;;;;;68.00;54.00;;;;;16.36;100.00;99391.56;6312071;20;3587798;-53
2022/09/08 01:42:40;;;;;;;;;65.33;52.33;;;;;16.38;100.00;99395.00;6281401;20;3612832;-53
2022/09/08 01:45:09;;;;;;;;;66.33;54.67;;;;;16.47;100.00;99398.72;6313826;20;3615922;-51
2022/09/08 01:47:38;;;;;;;;;63.33;52.00;;;;;16.56;100.00;99388.88;6284269;20;3619016;-51
2022/09/08 01:50:09;;;;;;;;;65.00;51.50;;;;;16.38;100.00;99395.00;6279270;20;3627335;-50
2022/09/08 01:52:37;;;;;;;;;65.67;53.67;;;;;16.15;100.00;99397.06;6313186;20;3620071;-47
2022/09/08 01:55:06;;;;;;;;;66.33;52.67;;;;;16.08;100.00;99393.19;6279751;20;3608564;-50
2022/09/08 01:57:35;;;;;;;;;66.00;52.67;;;;;16.39;100.00;99385.88;6277208;20;3633660;-49
2022/09/08 02:00:07;;;;;;;;;66.67;54.33;;;;;16.37;100.00;99389.72;6280930;20;3588062;-50
2022/09/08 02:02:37;;;;;;;;;62.67;50.33;;;;;16.47;100.00;99385.16;6278744;20;3605468;-50
2022/09/08 02:05:07;;;;;;;;;65.67;51.67;;;;;16.38;100.00;99389.59;6312571;20;3618097;-48
2022/09/08 02:07:37;;;;;;;;;64.00;52.33;;;;;16.45;100.00;99401.56;6282624;20;3596088;-48
2022/09/08 02:10:08;;;;;;;;;63.33;52.33;;;;;16.65;100.00;99402.47;6278783;20;3617973;-47
2022/09/08 02:12:36;;;;;;;;;63.00;50.67;;;;;16.45;100.00;99411.53;6312974;20;3604429;-51
2022/09/08 02:15:07;;;;;;;;;65.00;52.33;;;;;16.60;100.00;99407.44;6276515;20;3609647;-51
2022/09/08 02:17:35;;;;;;;;;65.00;51.67;;;;;16.14;100.00;99403.47;6281059;20;3614833;-48
2022/09/08 02:20:05;;;;;;;;;64.67;52.67;;;;;16.17;100.00;99399.66;6279804;20;3617150;-50
2022/09/08 02:22:34;;;;;;;;;67.67;53.33;;;;;16.11;100.00;99392.91;6284886;20;3608572;-53
2022/09/08 02:25:03;;;;;;;;;68.67;55.67;;;;;16.15;100.00;99398.91;6279238;20;3614869;-48
2022/09/08 02:27:31;;;;;;;;;69.33;55.33;;;;;15.94;100.00;99386.28;6281368;20;3604407;-47
2022/09/08 02:30:01;;;;;;;;;62.67;51.33;;;;;15.77;100.00;99385.09;6280006;20;3595078;-47
2022/09/08 02:32:30;;;;;;;;;62.33;50.33;;;;;15.82;100.00;99386.50;6313463;20;3610662;-51
2022/09/08 02:34:58;;;;;;;;;67.33;54.33;;;;;15.89;100.00;99387.69;6281401;20;3621127;-50
2022/09/08 02:37:27;;;;;;;;;67.00;54.00;;;;;15.78;100.00;99386.78;6283740;20;3601336;-51
2022/09/08 02:39:56;;;;;;;;;62.67;50.67;;;;;15.53;100.00;99387.19;6279525;20;3607749;-51
2022/09/08 02:42:25;;;;;;;;;65.00;52.67;;;;;15.47;100.00;99391.28;6282329;20;3611687;-52
2022/09/08 02:44:53;;;;;;;;;62.67;51.67;;;;;15.70;100.00;99389.31;6279160;20;3617008;-52
2022/09/08 02:47:22;;;;;;;;;65.67;52.67;;;;;15.70;100.00;99389.31;6281529;20;3610649;-51
2022/09/08 02:49:51;;;;;;;;;66.00;53.00;;;;;15.73;100.00;99393.59;6279900;20;3609609;-49
2022/09/08 02:52:19;;;;;;;;;63.33;52.00;;;;;16.19;100.00;99394.91;6281293;20;3600418;-48
2022/09/08 02:54:49;;;;;;;;;67.00;53.00;;;;;16.11;100.00;99394.75;6279144;20;3609637;-53
2022/09/08 02:57:20;;;;;;;;;60.67;50.00;;;;;16.08;100.00;99397.75;6313644;20;3602360;-49
2022/09/08 02:59:49;;;;;;;;;61.33;49.33;;;;;16.10;100.00;99402.03;6278757;20;3616302;-47
2022/09/08 03:02:17;;;;;;;;;65.67;52.00;;;;;16.07;100.00;99396.03;6283539;20;3601309;-51
2022/09/08 03:04:47;;;;;;;;;60.00;47.67;;;;;16.15;100.00;99404.34;6278829;20;3623340;-51
2022/09/08 03:07:15;;;;;;;;;63.33;51.00;;;;;15.90;100.00;99401.06;6313960;20;3607581;-50
2022/09/08 03:09:44;;;;;;;;;59.33;49.33;;;;;15.80;100.00;99400.19;6279214;20;3599187;-49
2022/09/08 03:12:13;;;;;;;;;62.00;50.00;;;;;16.06;100.00;99405.13;6280422;20;3612822;-53
2022/09/08 03:14:42;;;;;;;;;65.67;52.33;;;;;15.79;100.00;99401.19;6281136;20;3610768;-53
2022/09/08 03:17:11;;;;;;;;;60.00;49.00;;;;;15.97;100.00;99396.84;6284793;20;3597087;-51
2022/09/08 03:19:39;;;;;;;;;64.67;52.00;;;;;15.85;100.00;99391.66;6280508;20;3588827;-53
2022/09/08 03:22:09;;;;;;;;;64.00;51.67;;;;;15.61;100.00;99390.06;6274545;20;3607561;-50
2022/09/08 03:24:42;;;;;;;;;64.25;50.00;;;;;15.72;100.00;99386.50;6309432;20;3632635;-51
2022/09/08 03:27:11;;;;;;;;;61.67;50.00;;;;;15.92;100.00;99382.00;6312260;20;3597613;-50
2022/09/08 03:29:40;;;;;;;;;66.00;52.33;;;;;15.78;100.00;99399.47;6279827;20;3600250;-48
2022/09/08 03:32:09;;;;;;;;;62.67;50.00;;;;;15.64;100.00;99395.25;6309749;20;3616151;-50
2022/09/08 03:34:38;;;;;;;;;63.33;52.00;;;;;15.72;100.00;99392.75;6277215;20;3614910;-49
2022/09/08 03:37:06;;;;;;;;;61.67;50.00;;;;;15.69;100.00;99393.03;6281444;20;3591982;-52
2022/09/08 03:39:36;;;;;;;;;63.33;50.00;;;;;15.65;100.00;99390.69;6275267;20;3619000;-52
2022/09/08 03:42:05;;;;;;;;;61.33;50.00;;;;;15.72;100.00;99400.03;6310029;20;3608550;-51
2022/09/08 03:44:35;;;;;;;;;62.00;51.00;;;;;15.85;100.00;99403.38;6276915;20;3615884;-49
2022/09/08 03:47:05;;;;;;;;;59.67;49.00;;;;;15.88;100.00;99397.69;6313663;20;3593007;-52
2022/09/08 03:49:34;;;;;;;;;66.33;52.33;;;;;15.69;100.00;99397.56;6278216;20;3610703;-52
2022/09/08 03:52:03;;;;;;;;;63.33;51.00;;;;;15.49;100.00;99392.00;6303671;20;3606571;-50
2022/09/08 03:54:47;;;;;;;;;65.00;52.00;;;;;15.48;100.00;99389.44;6276631;20;3612819;-47
2022/09/08 03:57:27;;;;;;;;;65.00;52.00;;;;;15.43;100.00;99386.25;6276195;20;2859754;-50
2022/09/08 03:59:58;;;;;;;;;63.67;51.67;;;;;15.26;100.00;99385.03;6306689;20;3614958;-52
2022/09/08 04:02:30;;;;;;;;;63.00;50.67;;;;;15.35;100.00;99387.81;6281189;20;3607713;-50
2022/09/08 04:05:00;;;;;;;;;62.00;49.67;;;;;15.37;100.00;99390.34;6278092;20;3600250;-49
2022/09/08 04:07:32;;;;;;;;;65.33;52.67;;;;;15.88;100.00;99397.69;6312950;20;3617979;-53
2022/09/08 04:10:02;;;;;;;;;62.00;50.33;;;;;15.69;100.00;99403.84;6280695;20;3615907;-50
2022/09/08 04:12:42;;;;;;;;;63.33;51.00;;;;;15.67;100.00;99416.63;6276767;20;3608555;-50
2022/09/08 04:15:11;;;;;;;;;64.67;51.00;;;;;15.50;100.00;99420.78;6311604;20;3625245;-53
2022/09/08 04:17:40;;;;;;;;;63.00;52.00;;;;;15.84;100.00;99423.28;6281087;20;2658027;-50
2022/09/08 04:20:09;;;;;;;;;66.00;53.33;;;;;15.48;100.00;99411.06;6278206;20;3612778;-48
2022/09/08 04:22:39;;;;;;;;;63.67;50.67;;;;;15.56;100.00;99417.56;6270567;20;3609702;-54
2022/09/08 04:25:09;;;;;;;;;62.00;50.50;;;;;15.51;100.00;99408.13;6310441;20;3616925;-49
2022/09/08 04:27:37;;;;;;;;;66.00;51.33;;;;;15.46;100.00;99411.22;6317257;20;3610702;-49
2022/09/08 04:30:07;;;;;;;;;63.33;50.33;;;;;15.35;100.00;99411.28;6284241;20;3624305;-49
2022/09/08 04:32:38;;;;;;;;;64.33;52.33;;;;;15.56;100.00;99419.38;6282412;20;3607173;-49
2022/09/08 04:35:08;;;;;;;;;61.33;49.67;;;;;15.30;100.00;99416.25;6284556;20;3616919;-53
2022/09/08 04:37:38;;;;;;;;;62.33;50.00;;;;;15.43;100.00;99419.59;6315819;20;3621175;-51
2022/09/08 04:40:08;;;;;;;;;62.00;50.00;;;;;15.30;100.00;99424.34;6284691;20;3605582;-50
2022/09/08 04:42:37;;;;;;;;;63.00;51.00;;;;;15.26;100.00;99423.75;6283542;20;3611848;-52
2022/09/08 04:45:06;;;;;;;;;65.00;52.00;;;;;15.26;100.00;99418.31;6286954;20;3613804;-52
2022/09/08 04:47:36;;;;;;;;;63.00;51.00;;;;;15.30;100.00;99414.38;6281804;20;3613758;-49
2022/09/08 04:50:05;;;;;;;;;62.00;50.33;;;;;15.33;100.00;99414.13;6317410;20;3627476;-53
2022/09/08 04:52:34;;;;;;;;;63.00;50.33;;;;;15.46;100.00;99413.06;6279694;20;3620058;-53
2022/09/08 04:55:03;;;;;;;;;64.67;51.00;;;;;15.80;100.00;99416.44;6283543;20;3624183;-52
2022/09/08 04:57:32;;;;;;;;;63.67;52.00;;;;;15.69;100.00;99420.09;6284547;20;3625309;-52
2022/09/08 05:00:02;;;;;;;;;67.00;54.33;;;;;15.92;100.00;99422.63;6283611;20;3620025;-53
2022/09/08 05:02:31;;;;;;;;;71.00;57.33;;;;;15.96;100.00;99411.38;6285064;20;3609664;-51
2022/09/08 05:04:59;;;;;;;;;62.67;50.67;;;;;15.96;100.00;99413.25;6284754;20;3617046;-49
2022/09/08 05:07:28;;;;;;;;;64.67;52.00;;;;;16.01;100.00;99417.25;6282676;20;3598236;-52
2022/09/08 05:09:57;;;;;;;;;66.67;52.67;;;;;16.21;100.00;99409.19;6283219;20;3621100;-52
2022/09/08 05:12:27;;;;;;;;;66.33;53.33;;;;;16.33;100.00;99420.81;6281680;20;3610734;-52
2022/09/08 05:14:56;;;;;;;;;66.00;53.00;;;;;16.44;100.00;99409.84;6285902;20;3619010;-52
2022/09/08 05:17:25;;;;;;;;;62.33;51.67;;;;;16.48;100.00;99402.28;6315648;20;3620032;-49
2022/09/08 05:19:53;;;;;;;;;60.00;48.67;;;;;16.42;100.00;99411.81;6283447;20;3602293;-55
2022/09/08 05:22:23;;;;;;;;;58.67;48.33;;;;;16.43;100.00;99408.13;6283033;20;3600258;-51
2022/09/08 05:24:53;;;;;;;;;64.00;52.25;;;;;16.48;100.00;99399.56;6315213;20;3624222;-51
2022/09/08 05:27:22;;;;;;;;;59.67;48.67;;;;;16.68;100.00;99407.59;6316028;20;3612725;-50
2022/09/08 05:29:50;;;;;;;;;61.33;49.33;;;;;17.10;100.00;99417.38;6284879;20;3622117;-51
2022/09/08 05:32:19;;;;;;;;;62.00;49.33;;;;;17.32;100.00;99433.38;6281143;20;3624722;-49
2022/09/08 05:34:48;;;;;;;;;55.33;45.00;;;;;17.41;100.00;99428.94;6282354;20;3619067;-55
2022/09/08 05:37:16;;;;;;;;;56.00;45.67;;;;;17.68;98.72;99436.31;6284769;20;3609722;-55
2022/09/08 05:39:46;;;;;;;;;57.00;46.67;;;;;17.63;98.58;99435.88;6283806;20;3602419;-52
2022/09/08 05:42:15;;;;;;;;;57.33;47.67;;;;;17.34;100.00;99433.22;6284393;20;3603369;-53
2022/09/08 05:44:45;;;;;;;;;55.00;45.00;;;;;17.61;100.00;99431.59;6280694;20;3613767;-55
2022/09/08 05:47:13;;;;;;;;;57.67;46.33;;;;;17.42;100.00;99429.78;6317359;20;3626259;-51
2022/09/08 05:49:42;;;;;;;;;52.00;44.33;;;;;17.63;100.00;99435.88;6287042;20;3596052;-55
2022/09/08 05:52:12;;;;;;;;;53.33;43.00;;;;;17.73;99.25;99442.16;6280704;20;3599345;-50
2022/09/08 05:54:40;;;;;;;;;50.67;42.67;;;;;18.15;98.16;99441.78;6310962;20;3592057;-53
2022/09/08 05:57:10;;;;;;;;;51.00;42.67;;;;;18.81;94.01;99442.63;6279140;20;2844098;-49
2022/09/08 05:59:40;;;;;;;;;50.00;42.00;;;;;18.67;94.45;99445.81;6316111;20;3604457;-51
2022/09/08 06:02:08;;;;;;;;;51.67;44.00;;;;;18.99;93.45;99440.78;6284558;20;3594047;-52
2022/09/08 06:04:37;;;;;;;;;49.67;42.67;;;;;19.35;90.46;99440.75;6283550;20;3583595;-54
2022/09/08 06:07:07;;;;;;;;;49.33;41.00;;;;;19.20;91.75;99432.31;6278601;20;2852454;-52
2022/09/08 06:09:35;;;;;;;;;49.00;40.00;;;;;19.75;89.68;99425.81;6315099;20;3592923;-52
2022/09/08 06:12:05;;;;;;;;;51.33;41.67;;;;;20.79;85.36;99424.78;6280756;20;3600214;-50
2022/09/08 06:14:35;;;;;;;;;48.25;38.00;;;;;21.30;82.04;99416.50;6315079;20;3605439;-55
2022/09/08 06:17:03;;;;;;;;;48.67;41.00;;;;;22.99;75.79;99415.41;6316229;20;3593980;-51
2022/09/08 06:19:34;;;;;;;;;49.33;38.00;;;;;21.76;80.02;99425.06;6283409;20;3600393;-54
2022/09/08 06:22:03;;;;;;;;;46.33;40.00;;;;;21.91;80.14;99426.91;6315929;20;3579513;-54
2022/09/08 06:24:32;;;;;;;;;40.00;34.00;;;;;22.71;77.22;99431.44;6282881;20;3590918;-54
2022/09/08 06:27:03;;;;;;;;;48.67;39.67;;;;;22.16;79.78;99437.78;6284858;20;3596558;-54
2022/09/08 06:30:18;;;;;;;;;43.67;38.00;;;;;22.33;79.71;99442.22;6283893;20;3588898;-52
2022/09/08 06:32:59;;;;;;;;;43.00;35.67;;;;;22.37;78.60;99445.44;6283390;20;3595053;-54
2022/09/08 06:35:36;;;;;;;;;43.67;36.67;;;;;25.41;68.10;99458.06;6282765;20;3613800;-50
2022/09/08 06:38:15;;;;;;;;;39.67;34.33;;;;;27.03;61.10;99451.56;6280148;20;3600225;-50
2022/09/08 06:40:51;;;;;;;;;40.00;35.67;;;;;23.83;70.68;99425.56;6279365;20;3591884;-48
2022/09/08 06:43:44;;;;;;;;;40.67;35.00;;;;;22.02;79.04;99427.56;6280353;20;3584637;-53
2022/09/08 06:46:37;;;;;;;;;38.67;33.67;;;;;21.40;81.88;99417.22;6279123;20;3591924;-53
2022/09/08 06:49:12;;;;;;;;;39.00;34.33;;;;;21.38;83.09;99411.06;6277660;20;3599273;-52
2022/09/08 06:52:43;;;;;;;;;43.00;36.33;;;;;21.60;82.14;99415.84;6283607;20;3589868;-52
2022/09/08 06:56:17;;;;;;;;;38.33;34.33;;;;;21.55;82.62;99393.66;6276253;20;3592085;-54
2022/09/08 06:59:56;;;;;;;;;34.00;32.00;;;;;21.70;82.36;99402.84;6281971;20;3595052;-50
2022/09/08 07:03:11;;;;;;;;;41.67;35.33;;;;;21.70;81.79;99397.41;6283942;20;3595011;-49
2022/09/08 07:06:06;;;;;;;;;40.33;33.67;;;;;21.84;82.87;99393.09;6283824;20;3596533;-52
2022/09/08 07:09:11;;;;;;;;;40.67;33.00;;;;;21.96;81.44;99395.44;6281938;20;3586687;-48
2022/09/08 07:12:21;;;;;;;;;38.00;34.33;;;;;22.04;81.69;99385.38;6283494;20;3600298;-47
2022/09/08 07:15:28;;;;;;;;;33.67;32.00;;;;;22.21;80.80;99394.38;6283776;20;3602478;-51
2022/09/08 07:18:44;;;;;;;;;34.33;32.00;;;;;22.62;79.55;99391.47;6283534;20;3597261;-52
2022/09/08 07:21:38;;;;;;;;;36.50;32.00;;;;;24.07;74.35;99395.13;6281907;20;3608666;-51
2022/09/08 07:24:15;;;;;;;;;32.00;31.00;;;;;23.06;76.75;99393.59;6312958;20;3593997;-54
2022/09/08 07:27:01;;;;;;;;;33.33;31.00;;;;;23.08;77.24;99396.16;6284007;20;3592921;-50
2022/09/08 07:29:38;;;;;;;;;43.33;35.00;;;;;22.85;78.22;99396.13;6286281;20;3597133;-49
2022/09/08 07:32:23;;;;;;;;;36.67;31.33;;;;;23.22;77.00;99404.47;6279965;20;3587139;-47
2022/09/08 07:35:09;;;;;;;;;32.00;30.00;;;;;23.53;75.32;99399.91;6279534;20;3570060;-46
2022/09/08 07:37:57;;;;;;;;;36.25;31.50;;;;;23.30;75.97;99399.94;6288374;20;3604532;-49
2022/09/08 07:40:49;;;;;;;;;33.00;30.00;;;;;23.83;74.09;99396.25;6309573;20;3600282;-52
2022/09/08 07:43:17;;;;;;;;;35.50;30.00;;;;;23.74;74.40;99400.09;6300595;20;3600495;-53
2022/09/08 07:46:36;;;;;;;;;33.33;31.00;;;;;23.89;74.17;99400.13;6294307;20;2857567;-54
2022/09/08 07:49:49;;;;;;;;;29.33;29.33;;;;;23.58;74.87;99401.06;6346302;20;3576432;-53
2022/09/08 07:52:54;;;;;;;;;29.33;28.33;;;;;24.01;73.31;99414.19;6313964;20;3583582;-53
2022/09/08 07:55:41;;;;;;;;;37.00;32.00;;;;;23.71;74.23;99413.28;6309318;20;3600314;-48
2022/09/08 07:58:28;;;;;;;;;32.00;30.00;;;;;24.30;73.08;99419.72;6339722;20;3601522;-51
2022/09/08 08:01:16;;;;;;;;;29.50;29.00;;;;;23.96;74.00;99408.44;6344975;20;3590888;-52
2022/09/08 08:04:15;;;;;;;;;33.67;30.67;;;;;24.50;73.97;99420.00;6342852;20;3599226;-55
2022/09/08 08:06:53;;;;;;;;;35.50;32.00;;;;;24.46;71.93;99412.34;6313734;20;3613489;-51
2022/09/08 08:10:03;;;;;;;;;35.00;32.00;;;;;24.83;71.44;99414.09;6339819;20;3616897;-52
2022/09/08 08:12:50;;;;;;;;;33.33;30.33;;;;;24.81;70.36;99420.81;6309907;20;3590018;-54
2022/09/08 08:15:42;;;;;;;;;37.50;31.50;;;;;24.95;69.83;99417.16;6316951;20;3615941;-53
2022/09/08 08:18:55;;;;;;;;;38.00;32.00;;;;;25.70;69.44;99423.19;6340169;20;3618980;-52
2022/09/08 08:21:35;;;;;;;;;35.00;30.00;;;;;25.38;68.86;99422.72;6309527;20;3600256;-49
2022/09/08 08:25:06;;;;;;;;;31.00;30.00;;;;;25.18;69.90;99426.13;6339373;20;3597252;-53
2022/09/08 08:28:00;;;;;;;;;31.00;30.00;;;;;25.28;68.71;99423.06;6340447;20;3596232;-54
2022/09/08 08:31:00;;;;;;;;;33.33;31.00;;;;;25.14;68.61;99416.53;6340814;20;3598348;-53
2022/09/08 08:33:41;;;;;;;;;24.67;24.67;;;;;25.29;69.01;99421.16;6339798;20;3581463;-51
2022/09/08 08:36:15;;;;;;;;;33.33;29.00;;;;;25.84;67.84;99419.56;6337987;20;3583659;-54
2022/09/08 08:38:51;;;;;;;;;32.67;31.00;;;;;25.84;68.18;99419.56;6340158;20;3601418;-53
2022/09/08 08:42:15;;;;;;;;;29.33;27.33;;;;;25.74;68.20;99421.78;6307678;20;3583593;-51
2022/09/08 08:45:37;;;;;;;;;32.50;30.00;;;;;26.32;66.04;99427.06;6310079;20;3590855;-51
2022/09/08 08:48:53;;;;;;;;;29.00;28.86;;;;;26.57;65.00;99414.53;6357516;20;3596076;-50
2022/09/08 08:52:02;;;;;;;;;27.33;27.33;;;;;26.23;65.55;99418.13;6311090;20;3592043;-53
2022/09/08 08:54:55;;;;;;;;;25.75;25.75;;;;;26.72;65.29;99414.38;6311170;20;3598171;-51
2022/09/08 08:57:55;;;;;;;;;33.00;28.33;;;;;26.01;65.20;99418.22;6319849;20;3590924;-50
2022/09/08 09:00:55;;;;;;;;;28.67;28.67;;;;;26.82;64.87;99420.34;6318535;20;3585690;-50
2022/09/08 09:04:18;;;;;;;;;29.00;29.00;;;;;27.08;62.84;99421.50;6285866;20;3592020;-49
2022/09/08 09:07:49;;;;;;;;;30.00;29.14;;;;;27.33;62.06;99422.66;6336740;20;3602289;-53
2022/09/08 09:11:08;;;;;;;;;30.00;29.33;;;;;26.85;62.87;99403.41;6290754;20;3575657;-54
2022/09/08 09:14:41;;;;;;;;;32.50;31.50;;;;;26.91;62.76;99402.59;6290220;20;3598172;-51
2022/09/08 09:17:54;;;;;;;;;25.67;23.67;;;;;27.61;61.55;99398.69;6317634;20;3590832;-52
2022/09/08 09:21:00;;;;;;;;;28.50;28.50;;;;;27.72;61.42;99393.34;6286139;20;3589869;-50
2022/09/08 09:24:03;;;;;;;;;27.67;27.00;;;;;27.85;60.32;99384.25;6315609;20;3587713;-50
2022/09/08 09:26:36;;;;;;;;;27.00;24.33;;;;;27.40;62.20;99380.44;6288425;20;1889926;-49
2022/09/08 09:29:22;;;;;;;;;28.71;27.86;;;;;28.32;59.66;99382.25;6334165;20;3592043;-49
2022/09/08 09:32:38;;;;;;;;;27.14;26.86;;;;;27.78;60.26;99381.50;6305576;20;3586717;-51
2022/09/08 09:35:48;;;;;;;;;29.14;27.43;;;;;27.89;60.52;99376.41;6334903;20;3582508;-52
2022/09/08 09:38:55;;;;;;;;;26.33;26.33;;;;;28.31;60.09;99371.44;6315100;20;3587905;-48
2022/09/08 09:41:45;;;;;;;;;29.00;27.00;;;;;28.26;58.00;99377.59;6287103;20;3586807;-49
2022/09/08 09:45:12;;;;;;;;;30.00;27.67;;;;;28.38;59.50;99375.00;6287364;20;3585717;-54
2022/09/08 09:48:27;;;;;;;;;31.14;27.57;;;;;28.44;59.79;99372.25;6304709;20;3586715;-54
2022/09/08 09:51:28;;;;;;;;;27.00;25.00;;;;;28.63;58.72;99370.47;6291487;20;3586706;-51
2022/09/08 09:54:33;;;;;;;;;26.71;26.71;;;;;28.42;58.85;99366.06;6304281;20;3598138;-48
2022/09/08 09:58:02;;;;;;;;;27.33;24.00;;;;;28.29;57.63;99362.50;6287823;20;3599189;-49
2022/09/08 10:01:16;;;;;;;;;26.75;26.00;;;;;29.21;57.83;99352.94;6286861;20;3583560;-51
2022/09/08 10:04:52;;;;;;;;;26.86;26.43;;;;;28.60;57.12;99343.28;6334224;20;3594018;-48
2022/09/08 10:07:24;;;;;;;;;23.67;23.00;;;;;28.97;57.58;99346.28;6285723;20;3589990;-48
2022/09/08 10:11:19;;;;;;;;;25.57;25.00;;;;;28.82;57.31;99348.50;6336271;20;3592074;-50
2022/09/08 10:15:10;;;;;;;;;28.67;24.67;;;;;29.10;56.33;99339.84;6287400;20;3593985;-52
2022/09/08 10:18:21;;;;;;;;;25.00;23.00;;;;;29.05;55.21;99326.69;6280289;20;3594123;-47
2022/09/08 10:22:01;;;;;;;;;24.29;23.43;;;;;29.08;56.75;99326.22;6330058;20;3577348;-47
2022/09/08 10:25:27;;;;;;;;;23.29;23.29;;;;;29.87;54.66;99321.09;6302596;20;3589907;-48
2022/09/08 10:28:30;;;;;;;;;21.00;18.67;;;;;29.23;53.53;99320.38;6285683;20;3588776;-47
2022/09/08 10:31:08;;;;;;;;;19.00;19.00;;;;;30.23;52.51;99322.22;6285913;20;3568068;-49
2022/09/08 10:34:12;;;;;;;;;18.33;18.33;;;;;30.27;52.19;99323.44;6321828;20;3569021;-49
2022/09/08 10:37:17;;;;;;;;;21.33;20.00;;;;;30.22;53.85;99331.56;6284425;20;3583562;-51
2022/09/08 10:40:56;;;;;;;;;19.00;18.67;;;;;29.45;54.30;99325.53;6284043;20;3581537;-46
2022/09/08 10:44:07;;;;;;;;;17.00;17.00;;;;;29.57;54.41;99322.84;6287469;20;3559633;-48
2022/09/08 10:47:35;;;;;;;;;20.00;19.00;;;;;29.81;54.46;99327.56;6283069;20;3577350;-46
2022/09/08 10:50:23;;;;;;;;;20.00;17.33;;;;;29.93;53.45;99322.09;6289736;20;3575214;-50
2022/09/08 10:53:29;;;;;;;;;17.33;15.00;;;;;30.07;52.01;99318.13;6288867;20;3552340;-52
2022/09/08 10:56:12;;;;;;;;;16.33;16.33;;;;;30.54;52.56;99314.78;6283727;20;3557636;-49
2022/09/08 10:59:15;;;;;;;;;19.00;18.00;;;;;30.38;52.24;99319.03;6280527;20;3564792;-47
2022/09/08 11:02:39;;;;;;;;;18.33;17.00;;;;;30.68;51.77;99316.31;6318582;20;3579378;-48
2022/09/08 11:05:29;;;;;;;;;12.00;12.00;;;;;31.00;49.85;99314.16;6284309;20;2483694;-46
2022/09/08 11:08:24;;;;;;;;;12.00;12.00;;;;;30.92;49.97;99316.44;6310266;20;2806610;-48
2022/09/08 11:11:41;;;;;;;;;10.33;10.33;;;;;29.77;50.56;99318.00;6288056;20;2483588;-57
2022/09/08 11:14:38;;;;;;;;;12.00;11.00;;;;;29.50;53.59;99312.69;6318657;20;2483588;-53
2022/09/08 11:17:24;;;;;;;;;20.33;13.67;;;;;30.27;50.22;99300.44;6313070;20;3559610;-47
2022/09/08 11:20:34;;;;;;;;;13.00;12.00;;;;;30.32;49.61;99295.03;6276419;20;3527326;-54
2022/09/08 11:23:33;;;;;;;;;12.67;12.67;;;;;30.73;50.38;99294.28;6282968;20;3535751;-49
2022/09/08 11:26:39;;;;;;;;;14.67;12.33;;;;;29.62;51.49;99296.22;6281937;20;3533554;-48
2022/09/08 11:29:14;;;;;;;;;11.00;10.00;;;;;29.94;50.38;99302.50;6279434;20;3502499;-48
2022/09/08 11:32:26;;;;;;;;;13.67;11.67;;;;;30.58;48.24;99313.25;6282908;20;2491885;-49
2022/09/08 11:35:55;;;;;;;;;10.67;6.33;;;;;30.60;46.10;99317.47;6314055;20;2762758;-51
2022/09/08 11:38:59;;;;;;;;;10.00;8.00;;;;;30.84;45.21;99304.59;6324449;20;2757111;-48
2022/09/08 11:42:12;;;;;;;;;7.33;7.33;;;;;30.53;45.55;99299.25;6315498;20;2748192;-52
2022/09/08 11:45:44;;;;;;;;;3.33;3.33;;;;;30.27;46.63;99300.44;6313919;20;2739882;-55
2022/09/08 11:49:01;;;;;;;;;7.33;7.33;;;;;30.48;45.98;99307.41;6312190;20;2752362;-56
2022/09/08 11:53:08;;;;;;;;;7.00;7.00;;;;;29.49;46.65;99293.53;6315737;20;2748190;-55
2022/09/08 11:56:22;;;;;;;;;5.67;5.67;;;;;30.50;45.30;99311.63;6313184;20;2744049;-53
2022/09/08 11:59:50;;;;;;;;;6.67;5.33;;;;;30.91;45.05;99307.25;6320975;20;2746241;-52
2022/09/08 12:03:04;;;;;;;;;6.00;6.00;;;;;31.12;43.50;99307.78;6316137;20;2737798;-52
2022/09/08 12:06:18;;;;;;;;;4.60;4.60;;;;;30.92;41.63;99306.19;6341491;20;2743038;-56
2022/09/08 12:09:25;;;;;;;;;5.67;4.33;;;;;30.69;45.11;99309.66;6278265;20;2741927;-55
2022/09/08 12:12:51;;;;;;;;;5.33;5.33;;;;;30.60;44.53;99302.78;6316764;20;2738798;-57
2022/09/08 12:16:12;;;;;;;;;7.33;6.33;;;;;30.54;45.41;99309.25;6316279;20;2731594;-56
2022/09/08 12:19:22;;;;;;;;;6.00;5.33;;;;;30.93;44.01;99307.00;6313261;20;2744105;-52
2022/09/08 12:22:36;;;;;;;;;8.00;4.67;;;;;30.79;44.85;99318.28;6315484;20;2736765;-56
2022/09/08 12:25:27;;;;;;;;;3.33;3.33;;;;;29.94;45.81;99307.19;6317402;20;2736832;-53
2022/09/08 12:28:53;;;;;;;;;6.67;6.00;;;;;29.96;44.84;99300.34;6313237;20;2742062;-49
2022/09/08 12:31:49;;;;;;;;;4.00;4.00;;;;;31.03;43.84;99290.66;6316940;20;2752343;-50